Time;durP1;ratioP1;P1;durP2;ratioP2;P2;SDS_P1;SDS_P2;PMS_P1;PMS_P2;Temp;Humidity;BMP_temperature;BMP_pressure;BME280_temperature;BME280_humidity;BME280_pressure;Samples;Min_cycle;Max_cycle;Signal;HPM_P1;HPM_P2
2023/01/23 00:02:04;;;;;;;;;24.00;21.00;;;;;7.86;59.65;100153.38;6254118;27;96222;-63
2023/01/23 00:05:10;;;;;;;;;27.00;24.00;;;;;7.88;59.66;100172.81;6241070;28;96349;-63
2023/01/23 00:08:13;;;;;;;;;27.00;24.00;;;;;7.80;59.75;100166.47;6240670;28;96247;-63
2023/01/23 00:11:22;;;;;;;;;26.40;24.00;;;;;7.76;60.00;100167.84;6240128;28;96897;-63
2023/01/23 00:14:25;;;;;;;;;28.40;25.60;;;;;7.74;60.11;100161.78;6239543;27;96651;-63
2023/01/23 00:17:28;;;;;;;;;31.80;28.80;;;;;7.79;60.04;100166.63;6240531;28;96442;-63
2023/01/23 00:20:33;;;;;;;;;27.60;24.60;;;;;7.83;59.99;100178.69;6240330;28;96527;-64
2023/01/23 00:23:37;;;;;;;;;30.00;26.60;;;;;7.82;59.89;100182.38;6240768;28;96947;-63
2023/01/23 00:26:41;;;;;;;;;25.00;22.00;;;;;7.84;59.89;100189.28;6240187;28;96504;-63
2023/01/23 00:29:46;;;;;;;;;27.00;23.00;;;;;7.83;59.93;100192.13;6239000;28;96292;-63
2023/01/23 00:32:49;;;;;;;;;28.40;26.40;;;;;7.86;59.94;100194.50;6231751;28;96462;-64
2023/01/23 00:35:55;;;;;;;;;24.75;23.00;;;;;7.83;59.90;100206.38;6239893;28;96475;-64
2023/01/23 00:38:59;;;;;;;;;26.75;25.00;;;;;7.86;59.63;100196.31;6239193;28;96646;-63
2023/01/23 00:42:02;;;;;;;;;29.67;27.67;;;;;7.87;59.88;100204.19;6239408;28;96350;-63
2023/01/23 00:45:07;;;;;;;;;30.50;27.00;;;;;7.84;59.91;100196.50;6227274;27;96264;-63
2023/01/23 00:48:11;;;;;;;;;27.00;25.60;;;;;7.84;60.05;100204.53;6244427;27;96391;-63
2023/01/23 00:51:16;;;;;;;;;28.00;25.00;;;;;7.87;59.98;100198.00;6240416;27;96514;-64
2023/01/23 00:54:20;;;;;;;;;28.80;23.40;;;;;7.83;59.91;100209.06;6206480;28;96354;-64
2023/01/23 00:57:23;;;;;;;;;31.20;27.40;;;;;7.81;60.02;100210.28;6239829;28;96276;-63
2023/01/23 01:00:27;;;;;;;;;33.40;29.40;;;;;7.82;60.02;100214.59;6228664;27;96751;-63
2023/01/23 01:03:31;;;;;;;;;27.40;26.40;;;;;7.75;60.21;100219.84;6211307;28;97004;-63
2023/01/23 01:06:37;;;;;;;;;32.00;28.00;;;;;7.73;60.36;100219.16;6254739;27;96570;-63
2023/01/23 01:09:41;;;;;;;;;26.60;25.00;;;;;7.70;60.54;100213.31;6240311;27;97079;-63
2023/01/23 01:12:45;;;;;;;;;28.40;25.60;;;;;7.67;60.64;100214.47;6207644;28;96845;-64
2023/01/23 01:15:50;;;;;;;;;26.40;23.20;;;;;7.72;60.63;100225.53;6238525;28;96848;-66
2023/01/23 01:18:53;;;;;;;;;27.80;24.80;;;;;7.75;60.33;100224.38;6239181;28;96391;-62
2023/01/23 01:21:58;;;;;;;;;30.00;27.00;;;;;7.76;60.27;100224.22;6239351;28;96309;-63
2023/01/23 01:25:02;;;;;;;;;28.60;25.00;;;;;7.80;60.28;100227.38;6238706;28;97954;-62
2023/01/23 01:28:06;;;;;;;;;23.20;20.60;;;;;7.67;60.34;100227.91;6219966;28;96948;-62
2023/01/23 01:31:12;;;;;;;;;31.00;28.00;;;;;7.65;60.51;100235.28;6241843;27;96457;-62
2023/01/23 01:34:15;;;;;;;;;31.25;25.75;;;;;7.56;60.68;100238.16;6239419;27;96454;-63
2023/01/23 01:37:21;;;;;;;;;32.20;28.00;;;;;7.36;61.31;100237.66;6239074;27;96319;-63
2023/01/23 01:40:26;;;;;;;;;28.60;23.00;;;;;7.26;61.66;100240.53;6238815;28;96579;-62
2023/01/23 01:43:32;;;;;;;;;30.00;27.60;;;;;7.29;61.86;100233.97;6239199;28;96483;-62
2023/01/23 01:46:36;;;;;;;;;30.80;27.80;;;;;7.38;61.75;100224.91;6220178;28;96247;-63
2023/01/23 01:49:39;;;;;;;;;34.80;29.80;;;;;7.48;61.50;100217.53;6254227;27;98053;-63
2023/01/23 01:52:44;;;;;;;;;29.40;26.40;;;;;7.53;61.31;100212.50;6238909;28;96963;-63
2023/01/23 01:55:48;;;;;;;;;29.20;25.20;;;;;7.58;61.12;100214.66;6238340;27;97412;-62
2023/01/23 01:58:53;;;;;;;;;29.40;27.40;;;;;7.60;60.91;100226.06;6245734;27;96943;-63
2023/01/23 02:02:04;;;;;;;;;29.00;24.00;;;;;7.56;61.06;100225.59;6220419;28;96261;-63
2023/01/23 02:05:12;;;;;;;;;31.50;25.25;;;;;7.56;60.98;100232.78;6254257;27;96484;-62
2023/01/23 02:08:22;;;;;;;;;27.40;25.00;;;;;7.54;61.08;100234.78;6219556;28;96709;-63
2023/01/23 02:11:26;;;;;;;;;31.60;27.00;;;;;7.58;61.05;100222.72;6220823;28;96041;-63
2023/01/23 02:14:29;;;;;;;;;27.00;25.60;;;;;7.62;60.74;100232.97;6238903;28;96318;-63
2023/01/23 02:17:35;;;;;;;;;27.80;23.00;;;;;7.64;60.73;100230.94;6238661;28;96220;-63
2023/01/23 02:20:39;;;;;;;;;27.25;25.00;;;;;7.69;60.70;100233.09;6220293;28;97444;-63
2023/01/23 02:24:00;;;;;;;;;31.00;26.60;;;;;7.71;60.49;100231.09;6253706;27;96407;-63
2023/01/23 02:27:06;;;;;;;;;27.80;24.00;;;;;7.66;60.55;100236.13;6225565;28;96356;-63
2023/01/23 02:30:11;;;;;;;;;30.00;23.75;;;;;7.63;60.71;100234.63;6234774;27;96797;-63
2023/01/23 02:33:48;;;;;;;;;30.00;26.50;;;;;7.69;60.48;100239.31;6246330;27;96299;-63
2023/01/23 02:36:52;;;;;;;;;29.00;26.00;;;;;7.74;60.49;100234.28;6208442;28;96317;-62
2023/01/23 02:39:56;;;;;;;;;29.00;25.00;;;;;7.74;60.40;100231.59;6220365;28;96383;-62
2023/01/23 02:43:01;;;;;;;;;25.00;22.80;;;;;7.68;60.37;100223.38;6238000;28;96262;-64
2023/01/23 02:46:05;;;;;;;;;31.00;27.00;;;;;7.77;60.37;100241.16;6223600;27;96738;-63
2023/01/23 02:49:09;;;;;;;;;28.40;25.40;;;;;7.72;59.93;100238.16;6241346;27;96716;-62
2023/01/23 02:52:13;;;;;;;;;29.80;25.00;;;;;7.78;60.28;100250.88;6236873;27;96461;-63
2023/01/23 02:55:17;;;;;;;;;29.00;26.00;;;;;7.81;60.22;100254.06;6238198;27;96492;-63
2023/01/23 03:01:43;;;;;;;;;35.50;29.50;;;;;7.78;60.35;100254.41;6215480;28;98549;-63
2023/01/23 03:04:46;;;;;;;;;30.00;26.60;;;;;7.78;60.52;100261.59;6237491;28;96318;-63
2023/01/23 03:07:50;;;;;;;;;28.40;23.00;;;;;7.77;60.46;100252.72;6219934;28;96356;-65
2023/01/23 03:10:53;;;;;;;;;28.50;25.25;;;;;7.79;60.46;100255.22;6237797;28;96538;-63
2023/01/23 03:13:59;;;;;;;;;30.00;25.00;;;;;7.79;60.24;100260.59;6237371;28;96262;-63
2023/01/23 03:17:02;;;;;;;;;29.40;26.00;;;;;7.73;60.42;100254.06;6236948;27;96244;-62
2023/01/23 03:20:10;;;;;;;;;27.60;25.80;;;;;7.73;60.31;100266.66;6219834;28;96476;-63
2023/01/23 03:23:15;;;;;;;;;25.80;24.00;;;;;7.71;60.39;100276.72;6205600;28;96691;-62
2023/01/23 03:26:18;;;;;;;;;31.00;26.00;;;;;7.73;60.43;100272.84;6240790;27;96592;-63
2023/01/23 03:32:49;;;;;;;;;27.40;25.40;;;;;7.71;60.47;100274.88;6223839;27;96329;-63
2023/01/23 03:35:52;;;;;;;;;30.00;28.00;;;;;7.71;60.43;100279.41;6253549;27;96414;-64
2023/01/23 03:42:17;;;;;;;;;34.50;30.00;;;;;7.75;60.34;100283.44;6245684;27;96347;-63
2023/01/23 03:45:23;;;;;;;;;29.40;27.60;;;;;7.78;60.23;100286.59;6230950;28;96206;-63
2023/01/23 03:48:27;;;;;;;;;31.40;27.80;;;;;7.78;60.37;100288.47;6223568;28;96399;-63
2023/01/23 03:51:32;;;;;;;;;32.00;28.00;;;;;7.74;60.39;100296.03;6234616;27;97179;-63
2023/01/23 03:54:36;;;;;;;;;33.50;29.25;;;;;7.74;60.46;100290.66;6221457;27;96853;-63
2023/01/23 03:57:41;;;;;;;;;31.00;29.60;;;;;7.76;60.41;100293.16;6227902;28;96965;-63
2023/01/23 04:01:10;;;;;;;;;30.60;27.00;;;;;7.76;60.38;100301.22;6219804;27;96438;-62
2023/01/23 04:04:16;;;;;;;;;33.25;27.25;;;;;7.74;60.45;100308.59;6205123;27;96694;-63
2023/01/23 04:07:19;;;;;;;;;35.00;30.00;;;;;7.69;60.61;100305.59;6217653;28;96183;-63
2023/01/23 04:10:24;;;;;;;;;34.20;28.40;;;;;7.65;60.83;100305.09;6221852;28;97184;-63
2023/01/23 04:13:31;;;;;;;;;33.40;29.00;;;;;7.59;60.86;100291.50;6221754;28;96591;-63
2023/01/23 04:16:36;;;;;;;;;33.80;29.00;;;;;7.69;60.68;100309.09;6215631;27;97009;-64
2023/01/23 04:19:39;;;;;;;;;33.20;29.00;;;;;7.77;60.58;100309.09;6220842;28;96350;-63
2023/01/23 04:22:43;;;;;;;;;35.40;31.20;;;;;7.77;60.43;100309.09;6237023;28;97553;-64
2023/01/23 04:25:46;;;;;;;;;37.50;32.75;;;;;7.78;60.78;100318.81;6260942;27;96274;-63
2023/01/23 04:28:50;;;;;;;;;36.00;30.00;;;;;7.70;60.68;100321.53;6265205;27;96334;-63
2023/01/23 04:31:55;;;;;;;;;36.67;32.00;;;;;7.61;61.05;100332.44;6240693;27;96641;-63
2023/01/23 04:34:59;;;;;;;;;38.25;31.25;;;;;7.54;61.45;100331.41;6230020;28;96281;-64
2023/01/23 04:38:03;;;;;;;;;44.33;32.67;;;;;7.51;61.79;100329.06;6219901;28;96333;-63
2023/01/23 04:41:06;;;;;;;;;37.00;32.00;;;;;7.46;61.87;100324.22;6243804;27;96231;-64
2023/01/23 04:44:21;;;;;;;;;39.80;32.20;;;;;7.48;61.93;100332.91;6196506;28;96430;-63
2023/01/23 04:47:52;;;;;;;;;44.00;33.00;;;;;7.55;61.78;100314.31;6222552;27;97023;-63
2023/01/23 04:50:57;;;;;;;;;36.00;32.00;;;;;7.60;61.61;100309.28;6244310;27;96213;-64
2023/01/23 04:54:01;;;;;;;;;39.67;33.33;;;;;7.65;61.41;100315.81;6253974;27;96412;-63
2023/01/23 04:57:05;;;;;;;;;38.50;32.50;;;;;7.69;61.24;100319.00;6232431;27;96823;-63
2023/01/23 05:00:10;;;;;;;;;36.50;32.00;;;;;7.77;61.04;100327.06;6248794;27;96577;-63
2023/01/23 05:03:15;;;;;;;;;32.67;30.33;;;;;7.78;60.98;100334.94;6230525;27;96417;-63
2023/01/23 05:06:21;;;;;;;;;39.00;32.00;;;;;7.66;60.88;100309.47;6239764;27;96407;-63
2023/01/23 05:09:27;;;;;;;;;33.80;30.40;;;;;7.72;61.07;100321.38;6224322;28;96412;-63
2023/01/23 05:12:30;;;;;;;;;40.40;32.60;;;;;7.70;61.18;100328.75;6220328;28;98858;-63
2023/01/23 05:15:34;;;;;;;;;38.50;32.75;;;;;7.70;61.30;100324.22;6218025;27;97112;-63
2023/01/23 05:18:39;;;;;;;;;39.75;34.50;;;;;7.71;61.28;100323.22;6254756;27;96222;-63
2023/01/23 05:21:42;;;;;;;;;35.00;30.20;;;;;7.70;61.40;100320.69;6216412;28;96309;-63
2023/01/23 05:24:52;;;;;;;;;36.80;32.00;;;;;7.72;61.60;100329.41;6220310;28;96892;-64
2023/01/23 05:27:56;;;;;;;;;33.60;27.40;;;;;7.69;61.38;100332.44;6222659;28;96510;-62
2023/01/23 05:31:00;;;;;;;;;29.00;25.60;;;;;7.67;61.53;100331.78;6224370;27;96371;-63
2023/01/23 05:34:14;;;;;;;;;32.00;28.00;;;;;7.59;61.78;100332.59;6223606;27;96391;-62
2023/01/23 05:37:19;;;;;;;;;36.40;30.40;;;;;7.57;61.85;100336.47;6218958;28;96820;-65
2023/01/23 05:40:27;;;;;;;;;26.60;25.60;;;;;7.58;62.17;100348.84;6232088;28;96205;-64
2023/01/23 05:43:49;;;;;;;;;33.80;30.40;;;;;7.67;61.94;100354.06;6236949;27;96986;-63
2023/01/23 05:47:04;;;;;;;;;32.00;28.00;;;;;7.70;61.78;100353.75;6215758;27;96949;-63
2023/01/23 05:50:14;;;;;;;;;32.00;27.00;;;;;7.76;61.49;100366.50;6215093;28;96288;-63
2023/01/23 05:53:18;;;;;;;;;30.00;27.00;;;;;7.78;61.51;100369.84;6250510;27;96287;-63
2023/01/23 05:56:22;;;;;;;;;27.75;25.25;;;;;7.73;61.55;100369.50;6213551;27;97263;-63
2023/01/23 05:59:44;;;;;;;;;32.00;28.00;;;;;7.74;61.68;100373.88;6233894;27;96961;-64
2023/01/23 06:03:16;;;;;;;;;31.00;27.50;;;;;7.71;61.57;100384.97;6234509;27;97234;-64
2023/01/23 06:06:38;;;;;;;;;33.60;27.40;;;;;7.67;62.16;100385.47;6218112;28;96805;-63
2023/01/23 06:09:43;;;;;;;;;33.00;29.00;;;;;7.64;62.12;100391.13;6224969;28;96243;-63
2023/01/23 06:12:47;;;;;;;;;34.00;29.80;;;;;7.61;62.04;100389.66;6252852;27;96235;-62
2023/01/23 06:15:50;;;;;;;;;33.40;28.60;;;;;7.69;62.04;100397.69;6236568;27;96414;-62
2023/01/23 06:18:54;;;;;;;;;35.60;30.00;;;;;7.73;62.00;100392.81;6217097;27;96542;-64
2023/01/23 06:21:59;;;;;;;;;34.40;30.00;;;;;7.87;61.70;100402.09;6217308;28;96746;-64
2023/01/23 06:25:08;;;;;;;;;27.40;26.20;;;;;7.94;61.44;100403.06;6249494;27;96537;-61
2023/01/23 06:28:12;;;;;;;;;28.50;27.00;;;;;7.98;61.21;100404.41;6211479;28;96262;-62
2023/01/23 06:31:15;;;;;;;;;30.40;27.00;;;;;8.01;61.24;100409.47;6245003;27;96884;-62
2023/01/23 06:34:25;;;;;;;;;35.00;29.60;;;;;7.95;61.14;100392.19;6209993;28;98141;-62
2023/01/23 06:37:34;;;;;;;;;33.00;30.00;;;;;8.07;61.04;100412.28;6225370;27;96758;-63
2023/01/23 06:40:38;;;;;;;;;34.50;30.00;;;;;8.09;60.89;100414.81;6209310;28;96474;-63
2023/01/23 06:43:58;;;;;;;;;32.75;28.75;;;;;8.09;60.95;100407.63;6231418;27;96700;-63
2023/01/23 06:47:03;;;;;;;;;33.00;28.00;;;;;8.12;60.91;100411.78;6200207;28;97019;-63
2023/01/23 06:50:07;;;;;;;;;28.60;26.00;;;;;8.10;60.87;100414.66;6235007;28;96362;-63
2023/01/23 06:53:16;;;;;;;;;31.00;28.40;;;;;8.14;60.84;100423.22;6235615;27;96470;-62
2023/01/23 06:56:20;;;;;;;;;28.00;25.00;;;;;8.14;60.76;100423.22;6202466;28;96437;-62
2023/01/23 06:59:24;;;;;;;;;32.80;29.20;;;;;8.07;61.02;100416.81;6218601;28;96292;-62
2023/01/23 07:02:28;;;;;;;;;34.60;28.60;;;;;8.07;60.98;100419.50;6218804;28;96185;-62
2023/01/23 07:05:32;;;;;;;;;31.33;28.33;;;;;8.05;61.02;100421.56;6228257;27;97001;-62
2023/01/23 07:08:37;;;;;;;;;36.50;29.50;;;;;8.03;61.08;100424.38;6248680;27;96309;-64
2023/01/23 07:11:41;;;;;;;;;34.00;29.00;;;;;8.04;61.28;100431.44;6223808;28;96645;-64
2023/01/23 07:14:45;;;;;;;;;37.00;30.60;;;;;8.06;61.30;100424.03;6221056;28;96470;-68
2023/01/23 07:17:53;;;;;;;;;35.00;30.00;;;;;8.10;61.13;100425.41;6222249;27;96316;-62
2023/01/23 07:20:56;;;;;;;;;31.67;29.00;;;;;8.13;61.25;100429.59;6265579;27;96309;-62
2023/01/23 07:24:01;;;;;;;;;36.00;30.00;;;;;8.16;60.88;100424.72;6234608;27;97134;-63
2023/01/23 07:27:04;;;;;;;;;31.00;27.00;;;;;8.20;60.85;100428.78;6237969;27;96800;-63
2023/01/23 07:30:09;;;;;;;;;27.33;24.33;;;;;8.24;60.77;100437.31;6238318;28;96574;-63
2023/01/23 07:33:13;;;;;;;;;29.00;28.00;;;;;8.15;60.72;100446.41;6238631;28;96861;-64
2023/01/23 07:36:17;;;;;;;;;31.80;28.40;;;;;8.16;60.79;100445.41;6220372;28;96305;-63
2023/01/23 07:39:22;;;;;;;;;29.00;26.00;;;;;8.17;60.70;100441.69;6220283;28;96994;-64
2023/01/23 07:42:25;;;;;;;;;31.00;27.80;;;;;8.17;60.47;100447.91;6237929;28;97445;-62
2023/01/23 07:45:28;;;;;;;;;35.00;30.50;;;;;8.15;60.85;100459.84;6237173;27;96625;-64
2023/01/23 07:48:32;;;;;;;;;35.00;29.00;;;;;8.09;60.99;100457.81;6237367;28;96402;-62
2023/01/23 07:51:35;;;;;;;;;31.00;28.00;;;;;7.96;61.15;100441.34;6240424;28;96342;-62
2023/01/23 07:54:40;;;;;;;;;36.00;30.00;;;;;8.06;61.16;100455.47;6235046;28;96365;-62
2023/01/23 07:57:43;;;;;;;;;28.80;28.00;;;;;8.16;61.06;100467.69;6236180;28;96524;-62
2023/01/23 08:00:47;;;;;;;;;28.60;26.60;;;;;8.19;61.22;100469.22;6237536;28;96699;-62
2023/01/23 08:03:50;;;;;;;;;29.00;26.00;;;;;8.19;61.16;100467.38;6236663;28;96512;-63
2023/01/23 08:06:53;;;;;;;;;27.60;26.40;;;;;8.25;61.07;100476.63;6235015;28;96225;-63
2023/01/23 08:09:59;;;;;;;;;29.40;27.00;;;;;8.26;61.11;100472.91;6236673;27;96318;-63
2023/01/23 08:13:02;;;;;;;;;30.40;27.40;;;;;8.20;61.04;100477.13;6230709;27;96675;-63
2023/01/23 08:16:06;;;;;;;;;31.20;26.80;;;;;8.20;61.37;100481.66;6216518;28;97772;-63
2023/01/23 08:19:10;;;;;;;;;26.00;23.50;;;;;8.25;61.32;100480.16;6238114;27;96477;-63
2023/01/23 08:22:13;;;;;;;;;29.00;24.50;;;;;8.25;61.23;100482.00;6243711;27;96254;-63
2023/01/23 08:25:18;;;;;;;;;26.00;25.00;;;;;8.26;61.07;100476.44;6256001;27;97104;-63
2023/01/23 08:28:22;;;;;;;;;28.00;25.00;;;;;8.25;61.31;100479.31;6222336;27;96290;-62
2023/01/23 08:31:26;;;;;;;;;29.80;26.20;;;;;8.12;61.39;100484.31;6237908;27;96263;-63
2023/01/23 08:34:29;;;;;;;;;28.40;24.40;;;;;8.08;61.63;100486.50;6239551;28;96887;-63
2023/01/23 08:37:35;;;;;;;;;26.00;25.20;;;;;8.08;61.91;100491.03;6238668;28;97500;-63
2023/01/23 08:40:41;;;;;;;;;27.75;23.50;;;;;8.08;61.86;100491.03;6235248;28;96699;-63
2023/01/23 08:43:51;;;;;;;;;28.60;25.60;;;;;8.18;61.85;100494.41;6239578;28;96378;-62
2023/01/23 08:47:20;;;;;;;;;28.40;25.60;;;;;8.25;61.31;100503.50;6239393;28;96476;-63
2023/01/23 08:50:24;;;;;;;;;27.00;25.00;;;;;8.27;61.24;100506.84;6233393;28;97554;-62
2023/01/23 08:53:28;;;;;;;;;24.50;23.00;;;;;8.27;61.10;100510.38;6239118;28;96433;-64
2023/01/23 08:56:33;;;;;;;;;27.00;24.25;;;;;8.35;61.19;100498.81;6238760;28;96456;-63
2023/01/23 08:59:36;;;;;;;;;40.00;30.00;;;;;8.34;61.09;100497.16;6228338;28;96365;-63
2023/01/23 09:02:40;;;;;;;;;29.60;26.60;;;;;8.18;61.06;100489.88;6238174;28;96995;-62
2023/01/23 09:05:43;;;;;;;;;30.60;28.60;;;;;8.33;61.30;100500.00;6237881;28;96473;-63
2023/01/23 09:08:47;;;;;;;;;25.40;24.20;;;;;8.37;61.24;100495.94;6234098;28;96105;-62
2023/01/23 09:11:53;;;;;;;;;25.50;23.00;;;;;8.46;61.20;100498.47;6237156;28;96339;-63
2023/01/23 09:14:57;;;;;;;;;29.00;24.00;;;;;8.54;60.74;100490.41;6234505;28;97154;-64
2023/01/23 09:18:00;;;;;;;;;29.50;26.50;;;;;8.61;60.67;100483.34;6233338;28;97409;-63
2023/01/23 09:21:07;;;;;;;;;25.80;21.00;;;;;8.67;60.30;100487.19;6236298;28;96528;-63
2023/01/23 09:24:11;;;;;;;;;30.50;26.75;;;;;8.71;60.29;100480.47;6237448;28;96591;-63
2023/01/23 09:27:15;;;;;;;;;28.00;25.00;;;;;8.78;60.13;100475.25;6218921;28;96927;-63
2023/01/23 09:30:19;;;;;;;;;25.00;23.00;;;;;8.80;59.83;100483.97;6236498;28;96490;-63
2023/01/23 09:33:25;;;;;;;;;30.00;25.00;;;;;8.85;59.74;100478.91;6235890;27;97280;-63
2023/01/23 09:36:29;;;;;;;;;25.20;23.60;;;;;8.83;59.93;100478.25;6231245;27;97533;-64
2023/01/23 09:39:45;;;;;;;;;29.00;25.67;;;;;8.87;59.87;100474.22;6232386;27;96520;-63
2023/01/23 09:42:50;;;;;;;;;20.80;20.00;;;;;8.89;59.91;100469.50;6234232;27;97031;-63
2023/01/23 09:46:02;;;;;;;;;29.25;26.25;;;;;8.87;60.07;100469.69;6235328;28;96328;-64
2023/01/23 09:49:19;;;;;;;;;30.40;25.00;;;;;8.76;59.88;100472.72;6242953;27;97505;-64
2023/01/23 09:52:24;;;;;;;;;27.00;26.00;;;;;8.76;60.05;100478.09;6236247;28;96575;-62
2023/01/23 09:55:39;;;;;;;;;28.40;26.00;;;;;8.78;60.20;100478.78;6236944;28;96345;-62
2023/01/23 09:58:53;;;;;;;;;28.00;23.25;;;;;8.83;60.29;100491.72;6217150;28;98590;-63
2023/01/23 10:01:57;;;;;;;;;30.20;27.20;;;;;8.83;60.24;100481.78;6234208;28;96786;-63
2023/01/23 10:05:01;;;;;;;;;21.80;20.40;;;;;8.89;60.34;100481.13;6235436;28;96882;-63
2023/01/23 10:08:21;;;;;;;;;25.00;21.75;;;;;8.89;60.00;100488.34;6234089;28;97398;-63
2023/01/23 10:11:34;;;;;;;;;31.00;26.60;;;;;8.86;60.42;100480.59;6233820;27;96417;-62
2023/01/23 10:15:00;;;;;;;;;33.40;30.00;;;;;8.95;60.27;100466.09;6233073;28;96705;-64
2023/01/23 10:18:16;;;;;;;;;32.60;30.00;;;;;9.01;59.87;100468.13;6235639;28;96574;-63
2023/01/23 10:21:29;;;;;;;;;30.00;26.80;;;;;9.06;59.85;100474.66;6232853;28;96309;-65
2023/01/23 10:24:44;;;;;;;;;34.80;30.00;;;;;9.09;59.52;100485.06;6216493;28;96431;-62
2023/01/23 10:27:50;;;;;;;;;38.00;32.00;;;;;9.19;59.70;100476.78;6235752;28;96309;-63
2023/01/23 10:30:58;;;;;;;;;38.60;30.20;;;;;9.28;59.24;100477.63;6235018;28;96446;-64
2023/01/23 10:34:18;;;;;;;;;35.60;30.00;;;;;9.27;58.89;100476.78;6234632;28;96545;-64
2023/01/23 10:37:26;;;;;;;;;32.25;30.25;;;;;9.19;59.04;100457.13;6216199;28;96627;-64
2023/01/23 10:43:53;;;;;;;;;35.00;30.00;;;;;9.43;58.57;100475.88;6231522;27;96275;-64
2023/01/23 10:47:02;;;;;;;;;33.00;27.60;;;;;9.45;58.33;100474.66;6226481;28;96776;-63
2023/01/23 10:50:06;;;;;;;;;29.00;27.40;;;;;9.36;58.49;100469.50;6221025;28;96512;-63
2023/01/23 10:53:19;;;;;;;;;32.20;29.00;;;;;9.27;58.83;100463.31;6217854;28;96477;-63
2023/01/23 10:56:22;;;;;;;;;26.60;24.00;;;;;9.23;59.20;100467.38;6239848;28;96194;-62
2023/01/23 10:59:33;;;;;;;;;27.25;25.00;;;;;9.27;59.04;100459.78;6240873;28;96221;-63
2023/01/23 11:02:39;;;;;;;;;31.00;27.80;;;;;9.22;59.03;100456.78;6239488;28;96197;-64
2023/01/23 11:05:44;;;;;;;;;28.00;25.00;;;;;9.15;59.32;100432.41;6237482;28;96478;-63
2023/01/23 11:08:57;;;;;;;;;32.60;28.60;;;;;9.39;59.04;100451.13;6229438;28;96673;-63
2023/01/23 11:12:03;;;;;;;;;29.40;27.40;;;;;9.43;58.98;100439.00;6239583;28;96911;-64
2023/01/23 11:15:21;;;;;;;;;33.33;29.33;;;;;9.49;58.90;100440.97;6237647;28;97034;-63
2023/01/23 11:18:33;;;;;;;;;31.00;27.80;;;;;9.49;58.55;100443.69;6234683;27;96901;-64
2023/01/23 11:21:50;;;;;;;;;28.00;26.40;;;;;9.49;58.33;100440.97;6238768;28;96410;-63
2023/01/23 11:24:53;;;;;;;;;27.60;25.00;;;;;9.40;58.68;100435.81;6238261;28;96498;-64
2023/01/23 11:27:58;;;;;;;;;27.20;25.20;;;;;9.47;58.60;100431.41;6239641;28;96301;-63
2023/01/23 11:31:05;;;;;;;;;27.20;26.00;;;;;9.52;58.53;100429.03;6237069;28;96344;-64
2023/01/23 11:34:24;;;;;;;;;28.20;24.00;;;;;9.62;58.15;100418.88;6241278;27;96496;-63
2023/01/23 11:37:32;;;;;;;;;29.00;26.40;;;;;9.64;58.36;100432.16;6239138;28;96278;-63
2023/01/23 11:40:36;;;;;;;;;26.40;24.20;;;;;9.66;58.43;100427.44;6219937;28;96393;-63
2023/01/23 11:43:41;;;;;;;;;30.00;27.40;;;;;9.74;58.72;100427.38;6240637;28;97043;-63
2023/01/23 11:47:07;;;;;;;;;27.00;23.20;;;;;9.76;58.23;100426.19;6240339;27;97677;-64
2023/01/23 11:50:25;;;;;;;;;30.50;28.00;;;;;9.83;58.67;100423.59;6241355;28;96725;-63
2023/01/23 11:53:35;;;;;;;;;26.00;23.40;;;;;9.85;57.66;100425.09;6239580;28;96884;-64
2023/01/23 11:57:01;;;;;;;;;32.00;27.25;;;;;9.91;58.16;100434.34;6237346;28;96390;-65
2023/01/23 12:00:20;;;;;;;;;29.00;24.60;;;;;9.94;58.09;100426.72;6217174;27;98535;-63
2023/01/23 12:03:56;;;;;;;;;27.00;25.75;;;;;9.99;57.79;100426.16;6219046;28;96281;-63
2023/01/23 12:07:16;;;;;;;;;31.00;28.00;;;;;10.09;57.76;100418.69;6232752;28;96839;-63
2023/01/23 12:10:26;;;;;;;;;25.60;23.00;;;;;10.09;57.38;100412.44;6236376;27;97237;-63
2023/01/23 12:13:45;;;;;;;;;25.25;24.25;;;;;10.10;57.36;100417.66;6241811;27;96580;-64
2023/01/23 12:17:07;;;;;;;;;23.80;21.00;;;;;10.04;57.44;100417.53;6238116;27;97185;-64
2023/01/23 12:20:28;;;;;;;;;26.40;25.00;;;;;10.08;57.54;100422.38;6214666;28;96714;-63
2023/01/23 12:23:49;;;;;;;;;22.60;21.60;;;;;9.99;57.47;100421.63;6237293;28;96798;-64
2023/01/23 12:27:00;;;;;;;;;23.60;21.00;;;;;9.98;57.50;100427.19;6239107;27;96702;-64
2023/01/23 12:30:30;;;;;;;;;27.80;25.00;;;;;9.90;57.71;100424.56;6227435;28;96663;-63
2023/01/23 12:33:58;;;;;;;;;24.00;22.00;;;;;9.91;57.74;100418.16;6195523;27;96791;-64
2023/01/23 12:37:39;;;;;;;;;21.00;19.00;;;;;9.81;57.91;100420.25;6225501;28;96871;-65
2023/01/23 12:40:52;;;;;;;;;25.50;23.50;;;;;9.76;58.26;100418.09;6208005;28;96616;-63
2023/01/23 12:44:01;;;;;;;;;22.75;20.75;;;;;9.75;57.99;100408.34;6239208;28;96456;-64
2023/01/23 12:47:10;;;;;;;;;23.25;22.00;;;;;9.72;58.33;100413.25;6229130;28;96321;-63
2023/01/23 12:50:20;;;;;;;;;28.20;25.00;;;;;9.64;58.54;100416.00;6239125;28;97736;-63
2023/01/23 12:53:23;;;;;;;;;24.60;22.20;;;;;9.67;58.69;100423.72;6245509;27;96243;-63
2023/01/23 12:56:31;;;;;;;;;27.00;24.60;;;;;9.64;58.50;100429.44;6238046;28;96998;-63
2023/01/23 12:59:51;;;;;;;;;27.00;24.00;;;;;9.49;58.97;100427.53;6238747;28;96314;-63
2023/01/23 13:03:09;;;;;;;;;29.80;27.40;;;;;9.45;58.94;100423.50;6234087;27;96749;-63
2023/01/23 13:06:29;;;;;;;;;32.00;29.20;;;;;9.36;59.43;100429.97;6234958;27;96433;-63
2023/01/23 13:09:45;;;;;;;;;31.00;28.00;;;;;9.39;59.48;100431.44;6236211;27;96837;-63
2023/01/23 13:12:54;;;;;;;;;35.00;30.00;;;;;9.32;59.61;100417.03;6236055;28;96245;-65
2023/01/23 13:16:04;;;;;;;;;31.25;29.00;;;;;9.29;59.85;100422.75;6236628;28;97721;-64
2023/01/23 13:22:43;;;;;;;;;26.60;23.60;;;;;9.18;60.01;100432.06;6233580;27;97509;-64
2023/01/23 13:25:47;;;;;;;;;26.20;23.00;;;;;9.14;60.24;100430.72;6217329;27;97721;-66
2023/01/23 13:28:53;;;;;;;;;26.40;24.00;;;;;9.11;60.24;100429.25;6236177;28;96315;-64
2023/01/23 13:32:21;;;;;;;;;24.25;22.25;;;;;9.10;60.45;100435.63;6217731;27;96079;-63
2023/01/23 13:35:54;;;;;;;;;26.20;23.80;;;;;9.12;60.52;100435.47;6237204;28;97498;-62
2023/01/23 13:39:23;;;;;;;;;24.00;21.80;;;;;9.11;60.62;100447.22;6248921;27;96716;-63
2023/01/23 13:42:35;;;;;;;;;28.50;25.00;;;;;9.06;60.68;100449.59;6236425;28;96954;-63
2023/01/23 13:45:45;;;;;;;;;27.00;23.80;;;;;9.04;60.81;100441.69;6230730;27;96579;-64
2023/01/23 13:59:52;;;;;;;;;28.00;25.75;;;;;9.12;60.42;100451.59;5898744;29;96694;-63
2023/01/23 14:07:03;;;;;;;;;29.25;26.00;;;;;9.01;60.72;100449.28;5797801;30;96330;-63
2023/01/23 14:10:27;;;;;;;;;26.40;24.60;;;;;8.97;60.99;100450.66;5793371;30;97178;-62
2023/01/23 14:13:49;;;;;;;;;28.25;25.00;;;;;8.88;61.25;100447.16;5809404;30;97615;-64
2023/01/23 14:17:06;;;;;;;;;28.00;25.00;;;;;8.80;61.54;100451.69;5882019;29;97043;-64
2023/01/23 14:20:25;;;;;;;;;31.00;26.00;;;;;8.80;61.64;100454.38;5899188;29;96590;-63
2023/01/23 14:23:33;;;;;;;;;29.60;25.20;;;;;8.74;61.96;100453.25;5934986;29;96531;-63
2023/01/23 14:26:49;;;;;;;;;26.00;24.60;;;;;8.76;61.84;100456.59;5984404;28;96577;-63
2023/01/23 14:29:56;;;;;;;;;29.00;27.40;;;;;8.74;61.73;100444.34;6042067;28;96644;-63
2023/01/23 14:33:00;;;;;;;;;30.00;25.00;;;;;8.85;61.69;100458.22;6109496;28;96440;-62
2023/01/23 14:36:05;;;;;;;;;31.00;25.00;;;;;8.85;61.68;100460.94;6107195;28;97100;-63
2023/01/23 14:39:16;;;;;;;;;29.60;27.00;;;;;8.79;61.81;100469.72;6088108;28;97746;-63
2023/01/23 14:42:24;;;;;;;;;31.60;25.00;;;;;8.72;62.07;100459.78;6108994;28;96539;-63
2023/01/23 14:45:29;;;;;;;;;29.40;27.40;;;;;8.62;62.23;100451.91;6206134;28;96696;-63
2023/01/23 14:48:38;;;;;;;;;25.20;23.20;;;;;8.74;62.11;100463.16;6233351;28;97555;-63
2023/01/23 14:51:59;;;;;;;;;29.00;24.50;;;;;8.65;62.46;100455.09;6232506;28;96775;-64
2023/01/23 14:55:02;;;;;;;;;31.00;26.60;;;;;8.43;63.00;100445.06;6232847;27;96418;-63
2023/01/23 14:58:15;;;;;;;;;24.50;22.00;;;;;8.48;63.06;100455.31;6233387;28;96493;-64